Time;durP1;ratioP1;P1;durP2;ratioP2;P2;SDS_P1;SDS_P2;PMS_P1;PMS_P2;Temp;Humidity;BMP_temperature;BMP_pressure;BME280_temperature;BME280_humidity;BME280_pressure;Samples;Min_cycle;Max_cycle;Signal;HPM_P1;HPM_P2
2024/04/02 00:00:42;;;;;;;0.70;0.70;;;3.10;99.90;;;;;;6275686;22;20507;-75
2024/04/02 00:03:10;;;;;;;0.80;0.80;;;3.00;99.90;;;;;;6275666;22;20164;-74
2024/04/02 00:05:38;;;;;;;0.80;0.80;;;2.90;99.90;;;;;;6275481;22;20250;-73
2024/04/02 00:08:08;;;;;;;0.70;0.70;;;2.90;99.90;;;;;;6275645;22;20257;-74
2024/04/02 00:10:35;;;;;;;0.70;0.70;;;2.90;99.90;;;;;;6275658;22;20172;-74
2024/04/02 00:13:01;;;;;;;0.60;0.60;;;2.80;99.90;;;;;;6275753;22;20183;-74
2024/04/02 00:15:27;;;;;;;0.70;0.70;;;2.80;99.90;;;;;;6275518;22;20247;-74
2024/04/02 00:17:53;;;;;;;0.70;0.70;;;2.80;99.90;;;;;;6248892;22;20582;-74
2024/04/02 00:20:20;;;;;;;0.70;0.70;;;2.80;99.90;;;;;;6275468;22;20168;-73
2024/04/02 00:22:46;;;;;;;0.63;0.63;;;2.80;99.90;;;;;;6248623;22;20168;-75
2024/04/02 00:25:12;;;;;;;0.70;0.70;;;2.80;99.90;;;;;;6248433;22;20199;-76
2024/04/02 00:27:38;;;;;;;0.70;0.70;;;2.80;99.90;;;;;;6275495;22;20302;-76
2024/04/02 00:30:04;;;;;;;0.70;0.70;;;2.80;99.90;;;;;;6275768;22;20622;-76
2024/04/02 00:32:31;;;;;;;0.80;0.80;;;2.80;99.90;;;;;;6275152;22;20188;-76
2024/04/02 00:34:57;;;;;;;0.77;0.77;;;2.80;99.90;;;;;;6275809;22;20673;-76
2024/04/02 00:37:23;;;;;;;0.60;0.60;;;2.80;99.90;;;;;;6275488;22;20219;-76
2024/04/02 00:39:49;;;;;;;0.60;0.60;;;2.80;99.90;;;;;;6275795;22;20164;-76
2024/04/02 00:42:14;;;;;;;0.80;0.80;;;2.80;99.90;;;;;;6248536;22;20203;-76
2024/04/02 00:44:40;;;;;;;0.70;0.70;;;2.80;99.90;;;;;;6275546;22;20171;-75
2024/04/02 00:47:08;;;;;;;0.70;0.70;;;2.80;99.90;;;;;;6275630;22;20164;-76
2024/04/02 00:49:35;;;;;;;0.63;0.63;;;2.80;99.90;;;;;;6275602;22;20181;-76
2024/04/02 00:52:02;;;;;;;0.50;0.50;;;2.80;99.90;;;;;;6275844;22;20518;-76
2024/04/02 00:54:28;;;;;;;0.80;0.80;;;2.80;99.90;;;;;;6275406;22;20649;-76
2024/04/02 00:56:54;;;;;;;0.90;0.90;;;2.80;99.90;;;;;;6275611;22;20168;-76
2024/04/02 00:59:22;;;;;;;0.60;0.60;;;2.70;99.90;;;;;;6275638;22;20164;-76
2024/04/02 01:01:49;;;;;;;0.65;0.65;;;2.70;99.90;;;;;;6275440;22;20164;-76
2024/04/02 01:04:15;;;;;;;0.77;0.77;;;2.70;99.90;;;;;;6248170;22;20358;-76
2024/04/02 01:06:41;;;;;;;0.60;0.60;;;2.70;99.90;;;;;;6275079;22;20247;-75
2024/04/02 01:09:07;;;;;;;0.70;0.70;;;2.70;99.90;;;;;;6275837;22;20230;-76
2024/04/02 01:11:34;;;;;;;0.77;0.77;;;2.70;99.90;;;;;;6275367;22;20202;-76
2024/04/02 01:14:00;;;;;;;0.70;0.70;;;2.70;99.90;;;;;;6275635;22;20668;-76
2024/04/02 01:16:25;;;;;;;0.80;0.80;;;2.70;99.90;;;;;;6275339;22;20206;-76
2024/04/02 01:18:51;;;;;;;0.60;0.60;;;2.70;99.90;;;;;;6248357;22;20271;-76
2024/04/02 01:21:19;;;;;;;0.57;0.57;;;2.60;99.90;;;;;;6276242;22;20176;-77
2024/04/02 01:23:44;;;;;;;0.63;0.63;;;2.60;99.90;;;;;;6275358;22;20207;-76
2024/04/02 01:26:11;;;;;;;0.60;0.60;;;2.60;99.90;;;;;;6275756;22;20168;-77
2024/04/02 01:28:37;;;;;;;0.65;0.65;;;2.60;99.90;;;;;;6278232;22;20168;-77
2024/04/02 01:31:03;;;;;;;0.70;0.70;;;2.60;99.90;;;;;;6249158;22;20245;-77
2024/04/02 01:33:29;;;;;;;0.60;0.60;;;2.50;99.90;;;;;;6275612;22;20172;-76
2024/04/02 01:35:55;;;;;;;0.70;0.70;;;2.50;99.90;;;;;;6275571;22;20203;-75
2024/04/02 01:38:21;;;;;;;0.70;0.70;;;2.50;99.90;;;;;;6275162;22;20622;-76
2024/04/02 01:40:46;;;;;;;0.70;0.70;;;2.60;99.90;;;;;;6275619;22;20167;-76
2024/04/02 01:43:15;;;;;;;0.80;0.80;;;2.50;99.90;;;;;;6273929;22;20179;-76
2024/04/02 01:45:41;;;;;;;0.80;0.80;;;2.50;99.90;;;;;;6277185;22;20172;-76
2024/04/02 01:48:06;;;;;;;0.70;0.70;;;2.50;99.90;;;;;;6277158;22;20179;-76
2024/04/02 01:50:32;;;;;;;0.73;0.73;;;2.40;99.90;;;;;;6277016;22;20173;-76
2024/04/02 01:52:58;;;;;;;0.68;0.68;;;2.40;99.90;;;;;;6277218;22;20555;-75
2024/04/02 01:55:25;;;;;;;0.68;0.68;;;2.30;99.90;;;;;;6276973;22;20195;-76
2024/04/02 01:57:50;;;;;;;0.70;0.70;;;2.30;99.90;;;;;;6275410;22;20188;-76
2024/04/02 02:00:17;;;;;;;0.68;0.68;;;2.30;99.90;;;;;;6276743;22;20183;-76
2024/04/02 02:02:43;;;;;;;0.70;0.70;;;2.30;99.90;;;;;;6276891;22;20164;-76
2024/04/02 02:05:09;;;;;;;0.60;0.60;;;2.30;99.90;;;;;;6276827;22;20176;-75
2024/04/02 02:07:35;;;;;;;0.82;0.82;;;2.20;99.90;;;;;;6276728;22;20238;-75
2024/04/02 02:10:00;;;;;;;0.70;0.70;;;2.20;99.90;;;;;;6276990;22;20168;-75
2024/04/02 02:12:26;;;;;;;0.70;0.70;;;2.20;99.90;;;;;;6276821;22;20196;-76
2024/04/02 02:14:52;;;;;;;0.70;0.70;;;2.20;99.90;;;;;;6276802;22;20173;-75
2024/04/02 02:17:20;;;;;;;0.80;0.80;;;2.10;99.90;;;;;;6276893;22;20196;-76
2024/04/02 02:19:46;;;;;;;0.80;0.80;;;2.10;99.90;;;;;;6277145;22;20168;-77
2024/04/02 02:22:12;;;;;;;0.80;0.80;;;2.10;99.90;;;;;;6277560;22;20180;-76
2024/04/02 02:24:38;;;;;;;0.80;0.80;;;2.10;99.90;;;;;;6275373;22;20335;-76
2024/04/02 02:27:03;;;;;;;0.88;0.88;;;2.10;99.90;;;;;;6275462;22;20198;-76
2024/04/02 02:29:29;;;;;;;0.80;0.80;;;2.00;99.90;;;;;;6277050;22;20172;-76
2024/04/02 02:31:56;;;;;;;0.88;0.88;;;2.00;99.90;;;;;;6276833;22;20202;-76
2024/04/02 02:34:21;;;;;;;0.80;0.80;;;2.00;99.90;;;;;;6276644;22;20630;-76
2024/04/02 02:36:47;;;;;;;0.75;0.75;;;2.00;99.90;;;;;;6276960;22;20172;-76
2024/04/02 02:39:13;;;;;;;0.50;0.50;;;1.90;99.90;;;;;;6276774;22;20195;-75
2024/04/02 02:41:39;;;;;;;0.75;0.75;;;2.00;99.90;;;;;;6276585;22;20172;-76
2024/04/02 02:44:05;;;;;;;0.70;0.70;;;1.90;99.90;;;;;;6276889;22;20172;-76
2024/04/02 02:46:31;;;;;;;0.70;0.70;;;2.00;99.90;;;;;;6276704;22;20669;-77
2024/04/02 02:48:59;;;;;;;0.70;0.70;;;2.00;99.90;;;;;;6277097;22;20168;-76
2024/04/02 02:51:25;;;;;;;0.70;0.70;;;2.00;99.90;;;;;;6276923;22;20617;-76
2024/04/02 02:53:51;;;;;;;0.60;0.60;;;2.00;99.90;;;;;;6277083;22;20621;-76
2024/04/02 02:56:17;;;;;;;0.65;0.65;;;1.90;99.90;;;;;;6276533;22;20169;-76
2024/04/02 02:58:42;;;;;;;0.70;0.70;;;1.90;99.90;;;;;;6276299;22;20225;-77
2024/04/02 03:01:09;;;;;;;0.65;0.65;;;1.90;99.90;;;;;;6276711;22;20263;-77
2024/04/02 03:03:35;;;;;;;0.73;0.73;;;1.90;99.90;;;;;;6276077;22;20669;-76
2024/04/02 03:06:00;;;;;;;0.63;0.63;;;1.90;99.90;;;;;;6274975;22;20180;-76
2024/04/02 03:08:26;;;;;;;0.70;0.70;;;1.90;99.90;;;;;;6276920;22;20168;-76
2024/04/02 03:11:03;;;;;;;0.70;0.70;;;1.90;99.90;;;;;;6277809;22;20254;-76
2024/04/02 03:13:32;;;;;;;0.60;0.60;;;1.90;99.90;;;;;;6278256;22;20172;-76
2024/04/02 03:15:58;;;;;;;0.60;0.60;;;1.90;99.90;;;;;;6280422;22;20214;-76
2024/04/02 03:18:24;;;;;;;0.70;0.70;;;1.90;99.90;;;;;;6282815;22;20235;-76
2024/04/02 03:20:50;;;;;;;0.75;0.75;;;1.80;99.90;;;;;;6281984;22;20180;-76
2024/04/02 03:23:22;;;;;;;0.60;0.60;;;1.90;99.90;;;;;;6280090;22;20532;-76
2024/04/02 03:26:00;;;;;;;0.70;0.70;;;1.90;99.90;;;;;;6281286;22;20614;-76
2024/04/02 03:28:27;;;;;;;0.90;0.90;;;1.90;99.90;;;;;;6282069;22;20247;-75
2024/04/02 03:30:59;;;;;;;0.70;0.70;;;1.80;99.90;;;;;;6278550;22;20590;-76
2024/04/02 03:33:26;;;;;;;0.75;0.75;;;1.80;99.90;;;;;;6274729;22;20193;-76
2024/04/02 03:35:53;;;;;;;0.80;0.80;;;1.80;99.90;;;;;;6276300;22;20602;-75
2024/04/02 03:38:18;;;;;;;0.60;0.60;;;1.80;99.90;;;;;;6276141;22;20226;-76
2024/04/02 03:40:45;;;;;;;0.75;0.75;;;1.80;99.90;;;;;;6274924;22;20672;-76
2024/04/02 03:43:10;;;;;;;0.80;0.80;;;1.80;99.90;;;;;;6276326;22;20599;-75
2024/04/02 03:45:42;;;;;;;0.60;0.60;;;1.80;99.90;;;;;;6276004;22;20184;-76
2024/04/02 03:48:09;;;;;;;0.70;0.70;;;1.80;99.90;;;;;;6276452;22;20176;-76
2024/04/02 03:50:38;;;;;;;0.80;0.80;;;1.80;99.90;;;;;;6274199;22;20516;-76
2024/04/02 03:53:05;;;;;;;0.80;0.80;;;1.70;99.90;;;;;;6276483;22;20175;-73
2024/04/02 03:55:37;;;;;;;0.73;0.73;;;1.70;99.90;;;;;;6275724;22;20217;-75
2024/04/02 03:58:03;;;;;;;0.68;0.68;;;1.70;99.90;;;;;;6275930;22;20223;-75
2024/04/02 04:00:29;;;;;;;0.60;0.60;;;1.70;99.90;;;;;;6274075;22;20169;-74
2024/04/02 04:02:56;;;;;;;0.60;0.60;;;1.70;99.90;;;;;;6275875;22;20178;-75
2024/04/02 04:05:22;;;;;;;0.73;0.73;;;1.70;99.90;;;;;;6273976;22;20176;-72
2024/04/02 04:07:48;;;;;;;0.73;0.73;;;1.60;99.90;;;;;;6275518;22;20172;-74
2024/04/02 04:10:13;;;;;;;0.70;0.70;;;1.60;99.90;;;;;;6275840;22;20663;-73
2024/04/02 04:12:39;;;;;;;0.80;0.80;;;1.60;99.90;;;;;;6275782;22;20233;-75
2024/04/02 04:15:05;;;;;;;0.70;0.70;;;1.60;99.90;;;;;;6275743;22;20195;-74
2024/04/02 04:17:31;;;;;;;0.60;0.60;;;1.60;99.90;;;;;;6272822;22;20180;-73
2024/04/02 04:19:56;;;;;;;0.60;0.60;;;1.60;99.90;;;;;;6274146;22;20176;-73
2024/04/02 04:22:22;;;;;;;0.70;0.70;;;1.60;99.90;;;;;;6275970;22;20218;-73
2024/04/02 04:24:58;;;;;;;0.70;0.70;;;1.60;99.90;;;;;;6275858;22;20564;-73
2024/04/02 04:27:28;;;;;;;0.60;0.60;;;1.60;99.90;;;;;;6275533;22;20172;-74
2024/04/02 04:29:54;;;;;;;0.70;0.70;;;1.60;99.90;;;;;;6275645;22;20169;-73
2024/04/02 04:32:20;;;;;;;0.70;0.70;;;1.50;99.90;;;;;;6273799;22;20203;-74
2024/04/02 04:34:46;;;;;;;0.88;0.88;;;1.50;99.90;;;;;;6276014;22;20507;-72
2024/04/02 04:37:12;;;;;;;0.70;0.70;;;1.50;99.90;;;;;;6275458;22;20171;-74
2024/04/02 04:39:38;;;;;;;0.70;0.70;;;1.50;99.90;;;;;;6273817;22;20184;-75
2024/04/02 04:42:04;;;;;;;0.77;0.77;;;1.50;99.90;;;;;;6275570;22;20168;-73
2024/04/02 04:44:30;;;;;;;0.80;0.80;;;1.50;99.90;;;;;;6275384;22;20169;-73
2024/04/02 04:46:56;;;;;;;0.70;0.70;;;1.50;99.90;;;;;;6275347;22;20174;-74
2024/04/02 04:49:21;;;;;;;1.38;1.27;;;1.50;99.90;;;;;;6275388;22;20222;-75
2024/04/02 04:51:47;;;;;;;0.80;0.80;;;1.50;99.90;;;;;;6273948;22;20598;-76
2024/04/02 04:54:13;;;;;;;0.70;0.70;;;1.40;99.90;;;;;;6275582;22;20168;-74
2024/04/02 04:56:38;;;;;;;0.73;0.73;;;1.40;99.90;;;;;;6273818;22;20182;-74
2024/04/02 04:59:04;;;;;;;0.80;0.80;;;1.40;99.90;;;;;;6275343;22;20176;-73
2024/04/02 05:01:29;;;;;;;0.80;0.80;;;1.40;99.90;;;;;;6275336;22;20168;-74
2024/04/02 05:03:55;;;;;;;0.80;0.80;;;1.50;99.90;;;;;;6275393;22;20201;-74
2024/04/02 05:06:21;;;;;;;0.77;0.77;;;1.50;99.90;;;;;;6275246;22;20165;-74
2024/04/02 05:08:47;;;;;;;0.68;0.68;;;1.40;99.90;;;;;;6275498;22;20168;-73
2024/04/02 05:11:12;;;;;;;0.80;0.80;;;1.50;99.90;;;;;;6273990;22;20180;-73
2024/04/02 05:13:40;;;;;;;0.80;0.80;;;1.40;99.90;;;;;;6273698;22;20210;-73
2024/04/02 05:16:06;;;;;;;0.90;0.90;;;1.40;99.90;;;;;;6275492;22;20614;-75
2024/04/02 05:18:33;;;;;;;0.70;0.70;;;1.40;99.90;;;;;;6276198;22;20214;-73
2024/04/02 05:20:59;;;;;;;0.70;0.70;;;1.40;99.90;;;;;;6277466;22;20168;-73
2024/04/02 05:23:26;;;;;;;0.60;0.60;;;1.40;99.90;;;;;;6277072;22;20233;-72
2024/04/02 05:25:57;;;;;;;0.65;0.65;;;1.40;99.90;;;;;;6277385;22;20192;-73
2024/04/02 05:28:23;;;;;;;0.80;0.80;;;1.40;99.90;;;;;;6277095;22;20683;-71
2024/04/02 05:30:49;;;;;;;0.63;0.63;;;1.40;99.90;;;;;;6277050;22;20220;-72
2024/04/02 05:33:15;;;;;;;8.50;1.23;;;1.40;99.90;;;;;;6277377;22;20172;-72
2024/04/02 05:35:40;;;;;;;0.70;0.70;;;1.40;99.90;;;;;;6277265;22;20172;-72
2024/04/02 05:38:06;;;;;;;0.60;0.60;;;1.40;99.90;;;;;;6277383;22;20212;-72
2024/04/02 05:40:32;;;;;;;0.70;0.70;;;1.40;99.90;;;;;;6277213;22;20744;-72
2024/04/02 05:42:58;;;;;;;0.70;0.70;;;1.40;99.90;;;;;;6275555;22;20176;-72
2024/04/02 05:45:24;;;;;;;0.60;0.60;;;1.40;99.90;;;;;;6277088;22;20191;-74
2024/04/02 05:47:50;;;;;;;0.80;0.80;;;1.40;99.90;;;;;;6277142;22;20168;-73
2024/04/02 05:50:17;;;;;;;2.67;1.10;;;1.40;99.90;;;;;;6277149;22;20176;-73
2024/04/02 05:52:43;;;;;;;0.82;0.82;;;1.40;99.90;;;;;;6275228;22;20176;-73
2024/04/02 05:55:09;;;;;;;0.90;0.90;;;1.40;99.90;;;;;;6277080;22;20176;-73
2024/04/02 05:57:35;;;;;;;1.00;1.00;;;1.30;99.90;;;;;;6276605;22;20264;-73
2024/04/02 06:00:05;;;;;;;0.80;0.80;;;1.30;99.90;;;;;;6276978;22;20590;-72
2024/04/02 06:02:31;;;;;;;0.60;0.60;;;1.40;99.90;;;;;;6276656;22;20168;-73
2024/04/02 06:04:57;;;;;;;0.70;0.70;;;1.40;99.90;;;;;;6277058;22;20238;-73
2024/04/02 06:07:23;;;;;;;0.55;0.55;;;1.40;99.90;;;;;;6276544;22;20546;-74
2024/04/02 06:09:48;;;;;;;0.73;0.73;;;1.40;99.90;;;;;;6277951;22;20511;-71
2024/04/02 06:12:43;;;;;;;0.60;0.60;;;1.40;99.90;;;;;;6285837;22;20174;-75
2024/04/02 06:18:34;;;;;;;1.75;1.60;;;1.40;99.90;;;;;;6218492;23;20200;-75
2024/04/02 06:21:26;;;;;;;1.73;1.63;;;1.40;99.90;;;;;;6217969;23;20189;-77
2024/04/02 06:34:11;;;;;;;0.60;0.60;;;1.30;99.90;;;;;;6097102;23;20336;-75
2024/04/02 06:41:00;;;;;;;0.70;0.70;;;1.20;99.90;;;;;;6100937;23;20221;-76
2024/04/02 06:50:18;;;;;;;0.90;0.90;;;1.20;99.90;;;;;;5961962;24;20191;-76
2024/04/02 07:02:46;;;;;;;1.20;1.10;;;1.20;99.90;;;;;;5839508;24;20738;-77
2024/04/02 07:05:11;;;;;;;0.80;0.80;;;1.10;99.90;;;;;;5836785;24;20218;-74
2024/04/02 07:08:37;;;;;;;0.80;0.80;;;1.20;99.90;;;;;;5825540;24;20183;-76
2024/04/02 07:15:21;;;;;;;0.70;0.70;;;1.20;99.90;;;;;;5828122;24;20581;-77
2024/04/02 07:38:30;;;;;;;0.77;0.77;;;1.30;99.90;;;;;;6069876;23;20264;-75
2024/04/02 07:44:25;;;;;;;0.80;0.80;;;1.20;99.90;;;;;;6136203;23;20267;-76
2024/04/02 07:53:33;;;;;;;0.73;0.73;;;1.30;99.90;;;;;;6127459;23;20210;-75
2024/04/02 08:00:17;;;;;;;0.65;0.65;;;1.40;99.90;;;;;;6132321;23;20222;-77
2024/04/02 08:12:06;;;;;;;1.13;0.88;;;1.40;99.90;;;;;;6304586;22;20217;-73
2024/04/02 08:21:18;;;;;;;0.93;0.93;;;1.60;99.90;;;;;;6312712;22;20170;-74
2024/04/02 08:27:10;;;;;;;0.80;0.80;;;1.60;99.90;;;;;;6312401;22;20215;-76
2024/04/02 08:30:08;;;;;;;0.70;0.70;;;1.50;99.90;;;;;;6287325;22;20178;-74
2024/04/02 08:39:23;;;;;;;0.80;0.80;;;1.50;99.90;;;;;;6313635;22;20194;-74
2024/04/02 08:52:07;;;;;;;1.10;1.00;;;1.60;99.90;;;;;;6157645;23;20193;-76
2024/04/02 09:04:38;;;;;;;0.80;0.80;;;1.80;99.90;;;;;;6162602;23;20178;-75
2024/04/02 09:07:57;;;;;;;0.77;0.77;;;1.80;99.90;;;;;;6161011;23;20175;-75
2024/04/02 09:25:45;;;;;;;0.73;0.73;;;1.60;99.90;;;;;;6278105;22;20175;-76
2024/04/02 09:39:21;;;;;;;0.70;0.70;;;1.40;99.90;;;;;;6187266;23;20208;-75
2024/04/02 09:49:44;;;;;;;0.98;0.98;;;1.50;99.90;;;;;;6278988;22;20184;-77
2024/04/02 10:16:35;;;;;;;0.70;0.70;;;1.70;99.90;;;;;;6159938;23;20245;-76
2024/04/02 10:19:02;;;;;;;0.75;0.75;;;1.70;99.90;;;;;;6136214;23;20199;-76
2024/04/02 10:25:37;;;;;;;0.70;0.70;;;1.70;99.90;;;;;;6160419;23;20715;-75
2024/04/02 10:38:37;;;;;;;0.70;0.70;;;2.00;99.90;;;;;;6163425;23;20761;-74
2024/04/02 10:45:14;;;;;;;0.70;0.70;;;1.90;99.90;;;;;;6314506;22;20222;-75
2024/04/02 10:54:40;;;;;;;1.27;1.10;;;2.20;99.90;;;;;;6157742;23;20248;-77
2024/04/02 11:17:26;;;;;;;0.70;0.70;;;2.20;99.90;;;;;;6158788;23;20204;-76
2024/04/02 11:30:05;;;;;;;0.70;0.70;;;2.30;99.90;;;;;;6215894;23;20666;-71
2024/04/02 12:08:39;;;;;;;0.73;0.73;;;2.90;99.90;;;;;;6307200;22;20194;-77
2024/04/02 12:42:37;;;;;;;0.70;0.70;;;2.50;99.90;;;;;;5966762;23;20223;-73
2024/04/02 12:48:25;;;;;;;0.80;0.80;;;2.40;99.90;;;;;;5955952;23;20206;-75
2024/04/02 12:51:40;;;;;;;1.00;1.00;;;2.30;99.90;;;;;;5964969;23;20182;-77
2024/04/02 13:04:25;;;;;;;0.80;0.80;;;2.40;99.90;;;;;;6009659;23;20226;-74
2024/04/02 13:10:15;;;;;;;0.80;0.80;;;2.20;99.90;;;;;;6124946;23;20218;-76
2024/04/02 13:19:38;;;;;;;0.70;0.70;;;2.20;99.90;;;;;;6129658;23;20198;-75
2024/04/02 13:22:12;;;;;;;0.70;0.70;;;2.10;99.90;;;;;;6295572;22;20254;-74
2024/04/02 13:31:37;;;;;;;0.70;0.70;;;2.50;99.90;;;;;;6193229;22;20169;-74
2024/04/02 13:37:25;;;;;;;0.55;0.55;;;2.60;99.90;;;;;;6185166;23;20173;-76
2024/04/02 13:40:28;;;;;;;0.70;0.70;;;2.50;99.90;;;;;;6190421;23;20527;-76
2024/04/02 13:46:21;;;;;;;0.70;0.70;;;2.70;99.90;;;;;;6187098;23;20296;-76
2024/04/02 14:14:02;;;;;;;0.77;0.77;;;2.70;99.90;;;;;;6282568;22;20229;-76
2024/04/02 14:36:58;;;;;;;0.82;0.82;;;2.60;99.90;;;;;;6156083;23;20175;-75
2024/04/02 14:39:41;;;;;;;0.70;0.70;;;2.70;99.90;;;;;;6153771;23;20202;-75
2024/04/02 14:52:19;;;;;;;0.80;0.80;;;2.60;99.90;;;;;;6161201;23;20605;-75
2024/04/02 14:54:47;;;;;;;1.30;1.25;;;2.60;99.90;;;;;;6138860;23;20234;-75
2024/04/02 14:57:13;;;;;;;0.73;0.73;;;2.50;99.90;;;;;;6186886;23;20529;-75
2024/04/02 15:00:30;;;;;;;0.90;0.90;;;2.50;99.90;;;;;;6189668;23;20198;-75
2024/04/02 15:03:11;;;;;;;0.80;0.80;;;2.40;99.90;;;;;;6061332;23;20202;-75
2024/04/02 15:13:16;;;;;;;1.17;1.08;;;2.40;99.90;;;;;;6024820;23;20188;-74
2024/04/02 15:19:43;;;;;;;0.70;0.70;;;2.40;99.90;;;;;;6018390;23;20213;-73
2024/04/02 15:22:08;;;;;;;0.75;0.75;;;2.30;99.90;;;;;;6010605;23;20536;-74
2024/04/02 15:41:31;;;;;;;0.75;0.75;;;2.30;99.90;;;;;;5986818;24;20257;-75
2024/04/02 15:51:07;;;;;;;0.70;0.70;;;2.30;99.90;;;;;;6046458;23;20238;-75
2024/04/02 16:08:32;;;;;;;0.63;0.63;;;2.10;99.90;;;;;;6072879;23;20212;-77
2024/04/02 17:00:40;;;;;;;1.00;1.00;;;1.60;99.90;;;;;;5917151;24;20412;-77
2024/04/02 17:06:38;;;;;;;0.80;0.80;;;1.60;99.90;;;;;;5817758;24;20197;-74
2024/04/02 17:16:47;;;;;;;0.77;0.77;;;1.50;99.90;;;;;;5746611;25;20200;-75
2024/04/02 17:47:04;;;;;;;1.48;1.25;;;1.30;99.90;;;;;;5924540;24;20228;-76
2024/04/02 17:53:54;;;;;;;0.73;0.73;;;1.20;99.90;;;;;;6135856;23;20181;-73
2024/04/02 18:17:58;;;;;;;0.70;0.70;;;1.00;99.90;;;;;;6285295;22;20194;-77
2024/04/02 18:27:39;;;;;;;0.70;0.70;;;0.90;99.90;;;;;;6131450;23;20218;-78
2024/04/02 18:33:55;;;;;;;0.80;0.80;;;0.90;99.90;;;;;;6040106;23;20189;-74
2024/04/02 18:43:58;;;;;;;0.75;0.75;;;0.90;99.90;;;;;;6042462;23;20536;-76
2024/04/02 18:47:30;;;;;;;;;;;;;;;;;;;;;
2024/04/02 19:04:02;;;;;;;0.50;0.50;;;0.70;99.90;;;;;;5957644;24;20180;-73
2024/04/02 19:06:30;;;;;;;0.80;0.80;;;0.70;99.90;;;;;;5956369;24;20677;-74
2024/04/02 19:09:25;;;;;;;0.60;0.60;;;0.70;99.90;;;;;;5940526;24;20180;-73
2024/04/02 19:34:42;;;;;;;0.70;0.70;;;0.40;99.90;;;;;;6111769;23;20184;-75
2024/04/02 19:37:12;;;;;;;0.70;0.70;;;0.40;99.90;;;;;;6187038;23;20631;-76
2024/04/02 19:39:42;;;;;;;0.80;0.80;;;0.40;99.90;;;;;;6159922;23;20205;-73
2024/04/02 19:45:40;;;;;;;0.50;0.50;;;0.40;99.90;;;;;;6112718;23;20198;-75
2024/04/02 19:52:07;;;;;;;0.80;0.80;;;0.40;99.90;;;;;;6179872;23;20298;-74
2024/04/02 19:55:29;;;;;;;;;;;;;;;;;;;;;
2024/04/02 20:19:23;;;;;;;0.85;0.85;;;0.20;99.90;;;;;;6098641;23;20230;-73
2024/04/02 20:21:54;;;;;;;0.80;0.80;;;0.20;99.90;;;;;;6110948;23;20319;-74
2024/04/02 20:24:20;;;;;;;0.80;0.80;;;0.20;99.90;;;;;;6124949;23;20236;-72
2024/04/02 20:30:13;;;;;;;0.80;0.80;;;0.20;99.90;;;;;;6127025;23;20201;-74
2024/04/02 20:32:42;;;;;;;0.82;0.82;;;0.10;99.90;;;;;;6128752;23;20212;-76
2024/04/02 20:35:09;;;;;;;0.70;0.70;;;0.10;99.90;;;;;;6148566;23;20205;-76
2024/04/02 20:37:34;;;;;;;0.70;0.70;;;0.10;99.90;;;;;;6182057;23;20185;-75
2024/04/02 20:40:16;;;;;;;0.70;0.70;;;0.10;99.90;;;;;;6159437;23;20553;-75
2024/04/02 20:42:51;;;;;;;0.70;0.70;;;0.10;99.90;;;;;;6160651;23;20178;-75
2024/04/02 20:59:52;;;;;;;0.80;0.80;;;0.00;99.90;;;;;;6313925;22;20241;-74
2024/04/02 21:03:09;;;;;;;0.60;0.60;;;0.00;99.90;;;;;;6312737;22;20628;-74
2024/04/02 21:06:11;;;;;;;0.70;0.70;;;0.00;99.90;;;;;;6186355;23;20178;-74
2024/04/02 21:12:46;;;;;;;0.80;0.80;;;0.00;99.90;;;;;;6092835;23;20634;-73
2024/04/02 21:15:49;;;;;;;0.80;0.80;;;0.00;99.90;;;;;;6098081;23;20172;-74
2024/04/02 21:18:36;;;;;;;0.75;0.75;;;-0.10;99.90;;;;;;6098310;23;20294;-74
2024/04/02 21:25:40;;;;;;;0.68;0.68;;;-0.10;99.90;;;;;;6099964;23;20235;-74
2024/04/02 21:28:31;;;;;;;0.90;0.90;;;-0.10;99.90;;;;;;6070123;23;20177;-74
2024/04/02 21:30:59;;;;;;;0.80;0.80;;;-0.10;99.90;;;;;;6068777;23;20620;-74
2024/04/02 21:36:59;;;;;;;0.80;0.80;;;-0.10;99.90;;;;;;6012412;23;20326;-73
2024/04/02 21:39:59;;;;;;;0.77;0.77;;;-0.20;99.90;;;;;;6012372;23;20198;-72
2024/04/02 21:43:05;;;;;;;0.80;0.80;;;-0.20;99.90;;;;;;6050545;23;20196;-74
2024/04/02 21:46:18;;;;;;;0.70;0.70;;;-0.30;99.90;;;;;;6058687;23;20185;-72
2024/04/02 21:52:05;;;;;;;0.70;0.70;;;-0.30;99.90;;;;;;6128009;23;20209;-73
2024/04/02 21:54:31;;;;;;;0.80;0.80;;;-0.30;99.90;;;;;;6101307;23;20179;-73
2024/04/02 21:57:35;;;;;;;3.53;1.85;;;-0.30;99.90;;;;;;6124816;23;20681;-74
2024/04/02 22:38:36;;;;;;;0.70;0.70;;;-0.50;99.90;;;;;;6099045;23;20226;-73
2024/04/02 22:41:14;;;;;;;0.80;0.80;;;-0.50;99.90;;;;;;6098667;23;20176;-74
2024/04/02 22:54:36;;;;;;;0.70;0.70;;;-0.50;99.90;;;;;;6190765;22;20178;-76
2024/04/02 23:04:31;;;;;;;0.77;0.77;;;-0.50;99.90;;;;;;6104270;23;20194;-75
2024/04/02 23:07:06;;;;;;;0.70;0.70;;;-0.50;99.90;;;;;;6103060;23;20176;-77
2024/04/02 23:09:49;;;;;;;0.80;0.80;;;-0.50;99.90;;;;;;6104700;23;20172;-78
2024/04/02 23:15:51;;;;;;;0.80;0.80;;;-0.60;99.90;;;;;;6104194;23;20219;-76
2024/04/02 23:36:30;;;;;;;0.90;0.90;;;-0.60;99.90;;;;;;6084423;23;20172;-76
2024/04/02 23:43:38;;;;;;;0.70;0.70;;;-0.70;99.90;;;;;;6163689;23;20187;-75
2024/04/02 23:46:07;;;;;;;0.70;0.70;;;-0.80;99.90;;;;;;6129260;23;20572;-75
2024/04/02 23:48:33;;;;;;;0.65;0.65;;;-0.80;99.90;;;;;;6152519;23;20632;-75
2024/04/02 23:58:31;;;;;;;0.88;0.88;;;-0.80;99.90;;;;;;6014671;23;20190;-74
